Time;durP1;ratioP1;P1;durP2;ratioP2;P2;SDS_P1;SDS_P2;PMS_P1;PMS_P2;Temp;Humidity;BMP_temperature;BMP_pressure;BME280_temperature;BME280_humidity;BME280_pressure;Samples;Min_cycle;Max_cycle;Signal;HPM_P1;HPM_P2
2020/12/07 00:00:13;;;;;;;42.90;25.40;;;;;;;5.83;100.00;99059.78;5016699;28;20242;-71
2020/12/07 00:02:39;;;;;;;42.37;25.63;;;;;;;5.86;100.00;99046.56;5089178;28;20800;-71
2020/12/07 00:05:05;;;;;;;48.30;27.13;;;;;;;6.10;100.00;99020.50;5071608;28;20210;-71
2020/12/07 00:07:31;;;;;;;50.90;27.17;;;;;;;6.15;100.00;99012.34;5062318;28;20550;-71
2020/12/07 00:09:56;;;;;;;47.63;27.10;;;;;;;5.94;100.00;99019.00;5064214;28;20257;-71
2020/12/07 00:12:26;;;;;;;44.33;26.73;;;;;;;5.93;100.00;99011.19;5053643;28;20229;-71
2020/12/07 00:14:52;;;;;;;47.07;27.67;;;;;;;5.95;100.00;99007.16;5051945;28;20229;-71
2020/12/07 00:17:21;;;;;;;48.83;27.10;;;;;;;6.08;100.00;99016.44;5072329;28;20215;-71
2020/12/07 00:19:47;;;;;;;48.77;28.17;;;;;;;6.18;100.00;98993.72;5069273;28;20628;-71
2020/12/07 00:22:13;;;;;;;49.60;27.47;;;;;;;6.08;100.00;99000.28;5053679;28;20223;-71
2020/12/07 00:24:38;;;;;;;48.93;26.67;;;;;;;6.06;100.00;99003.25;5046952;28;20228;-71
2020/12/07 00:27:04;;;;;;;51.83;27.40;;;;;;;6.04;100.00;99010.03;5054876;28;20229;-71
2020/12/07 00:29:29;;;;;;;51.97;28.97;;;;;;;6.18;100.00;98998.31;5089408;28;20216;-71
2020/12/07 00:31:55;;;;;;;51.47;29.50;;;;;;;6.18;100.00;98995.63;5071800;28;20222;-71
2020/12/07 00:34:23;;;;;;;55.27;29.37;;;;;;;6.23;100.00;98992.88;5055127;28;20218;-71
2020/12/07 00:36:49;;;;;;;55.40;29.03;;;;;;;6.22;100.00;98992.06;5070659;28;20234;-71
2020/12/07 00:39:15;;;;;;;51.13;28.70;;;;;;;6.14;100.00;98991.88;5070932;28;20547;-71
2020/12/07 00:41:40;;;;;;;54.83;28.77;;;;;;;6.09;100.00;98975.75;5041262;28;20214;-71
2020/12/07 00:44:06;;;;;;;54.87;28.30;;;;;;;6.09;100.00;98974.97;5032304;28;20180;-71
2020/12/07 00:46:34;;;;;;;54.97;29.23;;;;;;;5.96;100.00;98964.84;5019056;28;20231;-70
2020/12/07 00:48:59;;;;;;;54.90;28.03;;;;;;;5.96;100.00;98970.25;5029100;28;20570;-71
2020/12/07 00:51:25;;;;;;;55.60;28.80;;;;;;;6.05;100.00;98963.94;5051632;28;20215;-71
2020/12/07 00:53:51;;;;;;;53.67;28.77;;;;;;;6.02;100.00;98969.09;5035288;28;20179;-70
2020/12/07 00:56:17;;;;;;;47.87;27.37;;;;;;;5.95;100.00;98968.63;5047148;28;20310;-71
2020/12/07 00:58:43;;;;;;;49.80;28.20;;;;;;;5.95;100.00;98955.97;5033376;28;20199;-71
2020/12/07 01:01:09;;;;;;;56.33;28.03;;;;;;;5.94;100.00;98954.34;5012858;28;20216;-70
2020/12/07 01:03:35;;;;;;;57.07;28.30;;;;;;;6.06;100.00;98954.75;5012340;28;20184;-70
2020/12/07 01:06:01;;;;;;;53.57;26.80;;;;;;;6.15;100.00;98944.97;5035878;28;20234;-70
2020/12/07 01:08:27;;;;;;;52.13;28.13;;;;;;;6.18;100.00;98952.50;5063887;28;20191;-71
2020/12/07 01:10:58;;;;;;;52.50;28.03;;;;;;;6.06;100.00;98954.75;5034614;28;20214;-70
2020/12/07 01:13:26;;;;;;;57.00;28.70;;;;;;;6.15;100.00;98950.34;5020507;28;20192;-70
2020/12/07 01:15:54;;;;;;;53.97;28.10;;;;;;;6.21;100.00;98958.13;5050725;28;20218;-70
2020/12/07 01:18:20;;;;;;;51.73;27.47;;;;;;;6.23;100.00;98949.75;5068828;28;20179;-70
2020/12/07 01:20:47;;;;;;;53.73;27.13;;;;;;;6.16;100.00;98955.47;5048627;28;20652;-70
2020/12/07 01:23:14;;;;;;;51.67;27.07;;;;;;;6.18;100.00;98947.09;5050267;28;20187;-70
2020/12/07 01:25:39;;;;;;;49.53;27.50;;;;;;;6.19;100.00;98941.44;5047328;28;20727;-70
2020/12/07 01:28:05;;;;;;;50.90;26.80;;;;;;;6.22;100.00;98940.03;4999369;28;20903;-70
2020/12/07 01:30:32;;;;;;;47.63;26.63;;;;;;;6.24;100.00;98937.88;5018511;28;20297;-70
2020/12/07 01:32:57;;;;;;;49.53;26.80;;;;;;;6.25;100.00;98942.97;5052302;28;21049;-70
2020/12/07 01:35:24;;;;;;;47.07;26.43;;;;;;;6.19;100.00;98943.31;5031748;28;20220;-70
2020/12/07 01:37:50;;;;;;;45.83;26.30;;;;;;;6.13;100.00;98936.38;5035582;28;20208;-70
2020/12/07 01:40:18;;;;;;;49.00;26.80;;;;;;;6.21;100.00;98938.47;5036003;28;20258;-70
2020/12/07 01:42:44;;;;;;;44.93;25.83;;;;;;;6.20;100.00;98940.31;5055688;28;20225;-70
2020/12/07 01:45:12;;;;;;;45.10;25.60;;;;;;;6.12;100.00;98942.88;5054376;28;20222;-70
2020/12/07 01:47:37;;;;;;;42.03;24.53;;;;;;;6.07;100.00;98945.59;5038186;28;20874;-70
2020/12/07 01:50:08;;;;;;;42.73;25.63;;;;;;;6.22;100.00;98937.34;5035830;28;20195;-70
2020/12/07 01:52:34;;;;;;;41.23;25.37;;;;;;;6.29;100.00;98943.22;5015440;28;20242;-70
2020/12/07 01:55:06;;;;;;;42.70;25.00;;;;;;;6.30;100.00;98940.25;5007332;28;20188;-71
2020/12/07 01:57:45;;;;;;;40.67;24.43;;;;;;;6.30;100.00;98934.03;5036639;28;20247;-70
2020/12/07 02:00:12;;;;;;;42.90;25.60;;;;;;;6.31;100.00;98935.63;5034443;28;20207;-71
2020/12/07 02:02:46;;;;;;;40.43;24.73;;;;;;;6.47;100.00;98945.97;5052109;28;20175;-70
2020/12/07 02:05:16;;;;;;;42.93;25.17;;;;;;;6.32;100.00;98942.66;5018296;28;20238;-70
2020/12/07 02:07:42;;;;;;;40.10;24.67;;;;;;;6.25;100.00;98956.47;5018307;28;20220;-71
2020/12/07 02:10:09;;;;;;;39.23;24.57;;;;;;;6.24;100.00;98956.72;5034535;28;20652;-70
2020/12/07 02:12:35;;;;;;;39.60;24.73;;;;;;;6.30;100.00;98934.03;5032486;28;20180;-70
2020/12/07 02:15:00;;;;;;;38.13;24.70;;;;;;;6.37;100.00;98932.59;5015601;28;20184;-70
2020/12/07 02:17:28;;;;;;;38.57;23.87;;;;;;;6.45;100.00;98936.56;5067739;28;20593;-72
2020/12/07 02:19:54;;;;;;;37.10;23.90;;;;;;;6.35;100.00;98937.47;5038890;28;20217;-70
2020/12/07 02:22:20;;;;;;;37.47;24.80;;;;;;;6.50;100.00;98939.19;5051990;28;20254;-70
2020/12/07 02:25:07;;;;;;;36.07;23.77;;;;;;;6.49;100.00;98943.00;5037046;28;20840;-70
2020/12/07 02:27:33;;;;;;;33.73;23.50;;;;;;;6.40;100.00;98942.81;5024231;28;20210;-70
2020/12/07 02:29:59;;;;;;;34.03;23.03;;;;;;;6.38;100.00;98947.69;5058958;28;20197;-71
2020/12/07 02:32:26;;;;;;;36.40;24.40;;;;;;;6.42;100.00;98947.91;5058848;28;20223;-71
2020/12/07 02:35:01;;;;;;;36.47;23.90;;;;;;;6.48;100.00;98946.75;5060274;28;20781;-70
2020/12/07 02:37:32;;;;;;;33.33;22.80;;;;;;;6.46;100.00;98938.16;5051569;28;20220;-71
2020/12/07 02:40:00;;;;;;;35.20;23.47;;;;;;;6.57;100.00;98930.47;5018175;28;20184;-71
2020/12/07 02:42:27;;;;;;;34.67;23.53;;;;;;;6.56;100.00;98928.84;5054633;28;20222;-71
2020/12/07 02:44:55;;;;;;;37.67;24.00;;;;;;;6.64;100.00;98920.13;5058314;28;20229;-71
2020/12/07 02:47:26;;;;;;;38.93;24.93;;;;;;;6.70;100.00;98919.00;5039311;28;20237;-70
2020/12/07 02:49:57;;;;;;;36.80;25.27;;;;;;;6.77;100.00;98897.81;5022553;28;20310;-71
2020/12/07 02:52:27;;;;;;;33.83;24.03;;;;;;;6.63;100.00;98907.75;5018896;28;20224;-70
2020/12/07 02:54:55;;;;;;;34.93;24.63;;;;;;;6.79;100.00;98911.81;5033843;28;20184;-70
2020/12/07 02:57:23;;;;;;;34.73;24.47;;;;;;;6.73;100.00;98896.81;5018435;28;20223;-70
2020/12/07 02:59:50;;;;;;;36.13;24.90;;;;;;;6.71;100.00;98904.38;5033972;28;20560;-70
2020/12/07 03:02:16;;;;;;;35.30;25.33;;;;;;;6.76;100.00;98907.03;5049672;28;20219;-70
2020/12/07 03:04:42;;;;;;;33.93;24.77;;;;;;;6.76;100.00;98893.53;5033493;28;20187;-70
2020/12/07 03:07:11;;;;;;;33.83;25.50;;;;;;;6.81;100.00;98895.34;5046401;28;20228;-70
2020/12/07 03:09:40;;;;;;;33.97;24.93;;;;;;;6.82;100.00;98895.06;5035559;28;20223;-70
2020/12/07 03:12:06;;;;;;;33.10;24.67;;;;;;;6.81;100.00;98877.25;5045819;28;20226;-70
2020/12/07 03:14:37;;;;;;;35.60;25.63;;;;;;;6.84;100.00;98865.09;5049943;28;20184;-70
2020/12/07 03:17:03;;;;;;;34.73;25.03;;;;;;;6.73;100.00;98856.34;5053192;28;20222;-70
2020/12/07 03:19:29;;;;;;;34.73;24.33;;;;;;;6.79;100.00;98865.97;5053411;28;20179;-71
2020/12/07 03:21:54;;;;;;;35.90;25.30;;;;;;;6.89;100.00;98868.53;5037942;28;20245;-70
2020/12/07 03:24:20;;;;;;;34.57;23.90;;;;;;;6.82;100.00;98862.69;5041332;28;20183;-70
2020/12/07 03:26:49;;;;;;;32.43;24.57;;;;;;;6.77;100.00;98876.25;5047863;28;20309;-71
2020/12/07 03:29:20;;;;;;;34.73;24.87;;;;;;;6.80;100.00;98867.59;5053566;28;20716;-71
2020/12/07 03:31:48;;;;;;;32.23;23.80;;;;;;;6.78;100.00;98856.28;5039227;28;20234;-70
2020/12/07 03:34:15;;;;;;;36.03;25.27;;;;;;;6.87;100.00;98843.75;5001638;28;20190;-70
2020/12/07 03:36:42;;;;;;;33.77;25.13;;;;;;;6.87;100.00;98846.44;5015932;28;20334;-71
2020/12/07 03:39:12;;;;;;;33.53;24.67;;;;;;;6.67;100.00;98844.03;4998779;28;20176;-70
2020/12/07 03:41:44;;;;;;;31.67;23.60;;;;;;;6.83;100.00;98831.94;5031978;28;20214;-71
2020/12/07 03:44:10;;;;;;;31.37;23.60;;;;;;;6.65;100.00;98843.53;5053205;28;20178;-71
2020/12/07 03:46:42;;;;;;;28.10;23.00;;;;;;;6.68;100.00;98851.00;5052273;28;20267;-71
2020/12/07 03:49:11;;;;;;;31.17;23.47;;;;;;;6.69;100.00;98851.84;5053047;28;20696;-71
2020/12/07 03:51:37;;;;;;;31.87;22.83;;;;;;;6.68;100.00;98842.94;5051798;28;20753;-72
2020/12/07 03:54:03;;;;;;;32.00;23.87;;;;;;;6.70;100.00;98838.06;5036180;28;20191;-71
2020/12/07 03:56:30;;;;;;;29.37;22.87;;;;;;;6.64;100.00;98847.28;5047364;28;20228;-72
2020/12/07 03:58:58;;;;;;;29.93;23.13;;;;;;;6.73;100.00;98853.66;5073226;28;20186;-71
2020/12/07 04:01:26;;;;;;;31.83;23.53;;;;;;;6.76;100.00;98863.03;5089086;28;20222;-71
2020/12/07 04:04:00;;;;;;;31.27;23.40;;;;;;;6.66;100.00;98852.41;5055966;28;20186;-71
2020/12/07 04:06:32;;;;;;;31.20;23.60;;;;;;;6.57;100.00;98854.97;5049282;28;20638;-71
2020/12/07 04:09:01;;;;;;;28.93;22.93;;;;;;;6.63;100.00;98852.97;5052573;28;20186;-70
2020/12/07 04:11:28;;;;;;;29.63;22.67;;;;;;;6.68;100.00;98850.22;5037101;28;20215;-71
2020/12/07 04:13:54;;;;;;;28.97;22.57;;;;;;;6.63;100.00;98851.09;5052750;28;20196;-71
2020/12/07 04:16:21;;;;;;;27.67;22.03;;;;;;;6.77;100.00;98851.97;5068862;28;20951;-71
2020/12/07 04:18:46;;;;;;;29.93;23.03;;;;;;;6.71;100.00;98850.44;5161603;22;20722;-71
2020/12/07 04:21:12;;;;;;;27.80;22.77;;;;;;;6.55;100.00;98878.69;5001742;28;20335;-71
2020/12/07 04:23:37;;;;;;;27.77;21.77;;;;;;;6.54;100.00;98879.00;4976896;28;20189;-71
2020/12/07 04:26:07;;;;;;;27.07;22.40;;;;;;;6.64;100.00;98873.47;4991946;28;20891;-71
2020/12/07 04:28:38;;;;;;;30.97;22.43;;;;;;;6.69;100.00;98871.50;4993746;28;20638;-72
2020/12/07 04:31:03;;;;;;;28.40;21.97;;;;;;;6.68;100.00;98877.19;4976715;28;20229;-73
2020/12/07 04:33:29;;;;;;;29.23;23.03;;;;;;;6.68;100.00;98869.91;4993123;28;20756;-71
2020/12/07 04:35:54;;;;;;;31.73;22.83;;;;;;;6.60;100.00;98875.16;4975295;28;20213;-71
2020/12/07 04:38:20;;;;;;;27.33;22.20;;;;;;;6.55;100.00;98878.69;4976953;28;20659;-71
2020/12/07 04:40:46;;;;;;;29.40;21.87;;;;;;;6.61;100.00;98874.88;4992492;28;20245;-74
2020/12/07 04:43:16;;;;;;;30.13;22.83;;;;;;;6.54;100.00;98870.94;5023308;28;20263;-72
2020/12/07 04:45:44;;;;;;;27.73;22.13;;;;;;;6.48;100.00;98871.25;4990255;28;20242;-71
2020/12/07 04:48:10;;;;;;;28.80;23.07;;;;;;;6.59;100.00;98842.00;5011976;28;20291;-71
2020/12/07 04:50:38;;;;;;;27.97;22.50;;;;;;;6.64;100.00;98838.41;5017500;28;20300;-71
2020/12/07 04:53:04;;;;;;;29.17;22.80;;;;;;;6.70;100.00;98831.84;5012246;28;20195;-72
2020/12/07 04:55:29;;;;;;;28.67;21.60;;;;;;;6.60;100.00;98837.41;4992102;28;20229;-72
2020/12/07 04:57:55;;;;;;;30.90;23.00;;;;;;;6.59;100.00;98833.91;4992503;28;20219;-71
2020/12/07 05:00:24;;;;;;;28.23;22.07;;;;;;;6.58;100.00;98835.00;5007170;28;20177;-73
2020/12/07 05:02:54;;;;;;;27.70;21.63;;;;;;;6.58;100.00;98828.81;4992598;28;20188;-71
2020/12/07 05:05:20;;;;;;;27.03;21.37;;;;;;;6.58;100.00;98835.00;5011025;28;20698;-73
2020/12/07 05:07:49;;;;;;;28.67;22.37;;;;;;;6.63;100.00;98842.19;5012280;28;20209;-72
2020/12/07 05:10:20;;;;;;;29.53;22.13;;;;;;;6.52;100.00;98835.38;4995959;28;20185;-72
2020/12/07 05:12:53;;;;;;;29.60;22.70;;;;;;;6.54;100.00;98833.19;4980608;28;20251;-72
2020/12/07 05:15:23;;;;;;;31.17;22.60;;;;;;;6.61;100.00;98818.22;4996617;28;20262;-71
2020/12/07 05:17:50;;;;;;;31.33;23.63;;;;;;;6.67;100.00;98822.47;5012793;28;20201;-72
2020/12/07 05:20:16;;;;;;;30.30;23.10;;;;;;;6.65;100.00;98829.25;5016967;28;20271;-71
2020/12/07 05:22:42;;;;;;;30.87;24.07;;;;;;;6.61;100.00;98822.81;5006494;28;20712;-72
2020/12/07 05:25:08;;;;;;;31.27;23.83;;;;;;;6.63;100.00;98824.13;4995413;28;20193;-72
2020/12/07 05:27:42;;;;;;;31.03;23.57;;;;;;;6.74;100.00;98820.19;5012428;28;20201;-72
2020/12/07 05:32:37;;;;;;;35.03;25.30;;;;;;;6.86;100.00;98807.06;4995806;28;20181;-71
2020/12/07 05:35:04;;;;;;;34.30;25.30;;;;;;;6.80;100.00;98805.53;4995084;28;20684;-72
2020/12/07 05:37:34;;;;;;;34.23;25.90;;;;;;;6.84;100.00;98814.66;5011988;28;20208;-71
2020/12/07 05:40:06;;;;;;;38.70;26.63;;;;;;;6.82;100.00;98816.84;4996217;28;20578;-72
2020/12/07 05:42:32;;;;;;;37.07;25.63;;;;;;;6.80;100.00;98823.63;5011885;28;20270;-71
2020/12/07 05:44:58;;;;;;;36.60;25.67;;;;;;;6.68;100.00;98828.66;4979342;28;20954;-72
2020/12/07 05:47:24;;;;;;;35.67;24.97;;;;;;;6.77;100.00;98843.09;4979168;28;20221;-71
2020/12/07 05:49:55;;;;;;;34.13;26.00;;;;;;;6.75;100.00;98829.09;5010212;28;20188;-71
2020/12/07 05:52:39;;;;;;;32.20;24.70;;;;;;;6.75;100.00;98821.78;4995445;28;20224;-71
2020/12/07 05:55:05;;;;;;;33.00;25.10;;;;;;;6.70;100.00;98823.75;4994251;28;20655;-72
2020/12/07 05:57:31;;;;;;;34.80;25.53;;;;;;;6.75;100.00;98815.59;4995198;28;20228;-72
2020/12/07 06:00:02;;;;;;;32.70;24.50;;;;;;;6.68;100.00;98807.88;5012105;28;20219;-71
2020/12/07 06:02:38;;;;;;;31.37;23.50;;;;;;;6.61;100.00;98812.84;5011506;28;20962;-71
2020/12/07 06:05:06;;;;;;;39.10;31.13;;;;;;;6.56;100.00;98826.38;5008638;28;20193;-72
2020/12/07 06:07:34;;;;;;;35.47;26.87;;;;;;;6.59;100.00;98831.22;4993754;28;20205;-71
2020/12/07 06:10:00;;;;;;;32.50;24.97;;;;;;;6.53;100.00;98824.25;5011452;28;20180;-70
2020/12/07 06:12:28;;;;;;;28.50;22.70;;;;;;;6.54;100.00;98811.59;4998100;28;20219;-71
2020/12/07 06:14:56;;;;;;;28.53;22.03;;;;;;;6.39;100.00;98809.13;4995424;28;20501;-71
2020/12/07 06:17:32;;;;;;;28.30;22.70;;;;;;;6.45;100.00;98809.84;4994162;28;20296;-71
2020/12/07 06:19:57;;;;;;;25.63;21.13;;;;;;;6.51;100.00;98812.16;5029485;28;20197;-71
2020/12/07 06:22:25;;;;;;;29.43;22.40;;;;;;;6.54;100.00;98817.78;4993283;28;20220;-72
2020/12/07 06:24:54;;;;;;;29.13;22.83;;;;;;;6.62;100.00;98819.81;4993715;28;20181;-71
2020/12/07 06:27:22;;;;;;;27.47;22.27;;;;;;;6.57;100.00;98828.00;4992665;28;20248;-71
2020/12/07 06:30:10;;;;;;;27.20;22.13;;;;;;;6.38;100.00;98828.28;4995470;28;20216;-71
2020/12/07 06:32:52;;;;;;;28.77;22.07;;;;;;;6.35;100.00;98818.06;4978152;28;20304;-71
2020/12/07 06:35:18;;;;;;;27.90;21.67;;;;;;;6.39;100.00;98835.25;4994336;28;20639;-71
2020/12/07 06:37:49;;;;;;;32.97;24.10;;;;;;;6.47;100.00;98853.50;4962982;28;20682;-71
2020/12/07 06:40:25;;;;;;;28.13;22.30;;;;;;;6.35;100.00;98843.13;4994804;28;20283;-71
2020/12/07 06:42:50;;;;;;;25.83;21.53;;;;;;;6.42;100.00;98845.47;4994719;28;20220;-71
2020/12/07 06:45:32;;;;;;;25.77;22.17;;;;;;;6.45;100.00;98848.41;4993583;28;20588;-71
2020/12/07 06:48:22;;;;;;;26.97;21.20;;;;;;;6.41;100.00;98860.03;4995039;28;20216;-71
2020/12/07 06:50:50;;;;;;;26.63;22.07;;;;;;;6.42;100.00;98858.94;5011283;28;20229;-71
2020/12/07 06:53:20;;;;;;;27.67;22.33;;;;;;;6.44;100.00;98859.47;5011046;28;20177;-71
2020/12/07 06:55:50;;;;;;;27.80;21.67;;;;;;;6.54;100.00;98866.31;4994031;28;20221;-70
2020/12/07 06:58:46;;;;;;;25.87;21.27;;;;;;;6.53;100.00;98875.50;4994767;28;20816;-71
2020/12/07 07:01:17;;;;;;;28.27;22.70;;;;;;;6.67;100.00;98871.00;5001708;28;20220;-71
2020/12/07 07:03:52;;;;;;;29.30;22.63;;;;;;;6.71;100.00;98850.44;5010752;28;20208;-71
2020/12/07 07:06:19;;;;;;;25.67;21.27;;;;;;;6.64;100.00;98844.59;5009391;28;20235;-71
2020/12/07 07:08:45;;;;;;;30.77;23.57;;;;;;;6.72;100.00;98862.84;5010668;28;20566;-71
2020/12/07 07:11:13;;;;;;;28.10;21.90;;;;;;;6.66;100.00;98874.78;4993313;28;20236;-73
2020/12/07 07:13:38;;;;;;;30.17;23.30;;;;;;;6.53;100.00;98880.88;4994650;28;20196;-72
2020/12/07 07:16:05;;;;;;;33.53;24.23;;;;;;;6.60;100.00;98886.72;4976922;28;20217;-71
2020/12/07 07:18:31;;;;;;;30.77;24.33;;;;;;;6.60;100.00;98886.72;5000724;28;20211;-71
2020/12/07 07:21:01;;;;;;;31.50;24.07;;;;;;;6.59;100.00;98904.03;5000779;28;20231;-71
2020/12/07 07:23:29;;;;;;;33.30;25.53;;;;;;;6.62;100.00;98903.44;4994541;28;20193;-71
2020/12/07 07:26:02;;;;;;;34.13;26.27;;;;;;;6.63;100.00;98907.75;5009405;28;20860;-71
2020/12/07 07:28:31;;;;;;;34.87;26.07;;;;;;;6.65;100.00;98915.56;4995565;28;20200;-72
2020/12/07 07:31:04;;;;;;;36.30;26.77;;;;;;;6.56;100.00;98912.69;4993515;28;20252;-71
2020/12/07 07:33:29;;;;;;;34.03;26.13;;;;;;;6.64;100.00;98898.53;4994235;28;20223;-71
2020/12/07 07:35:58;;;;;;;34.83;26.27;;;;;;;6.48;100.00;98892.84;4992558;28;20630;-71
2020/12/07 07:38:36;;;;;;;36.10;26.67;;;;;;;6.47;100.00;98899.34;4993694;28;20635;-71
2020/12/07 07:41:01;;;;;;;34.13;26.80;;;;;;;6.49;100.00;98905.25;4993644;28;20236;-70
2020/12/07 07:43:29;;;;;;;34.37;26.37;;;;;;;6.37;100.00;98912.91;4993752;28;20722;-71
2020/12/07 07:46:00;;;;;;;38.33;28.43;;;;;;;6.51;100.00;98910.03;4992337;28;20252;-72
2020/12/07 07:48:48;;;;;;;36.23;27.37;;;;;;;6.49;100.00;98910.63;4999865;28;20242;-71
2020/12/07 07:51:52;;;;;;;35.77;27.73;;;;;;;6.51;100.00;98908.44;4987029;28;20324;-71
2020/12/07 07:59:56;;;;;;;40.30;28.63;;;;;;;6.27;100.00;98904.97;5015629;28;20803;-71
2020/12/07 08:16:20;;;;;;;40.53;29.43;;;;;;;6.44;100.00;98929.56;5008603;28;20220;-71
2020/12/07 08:18:49;;;;;;;39.93;29.67;;;;;;;6.35;100.00;98931.28;5003963;28;20198;-71
2020/12/07 08:21:31;;;;;;;41.27;30.13;;;;;;;6.51;100.00;98915.44;5027368;28;20298;-71
2020/12/07 08:24:09;;;;;;;41.00;29.87;;;;;;;6.24;100.00;98908.22;5013003;28;20184;-71
2020/12/07 08:26:41;;;;;;;44.90;30.57;;;;;;;6.49;100.00;98899.84;5028300;28;20232;-71
2020/12/07 08:29:07;;;;;;;44.23;31.27;;;;;;;6.44;100.00;98914.19;5029351;28;20222;-72
2020/12/07 08:31:41;;;;;;;40.63;29.17;;;;;;;6.36;100.00;98922.13;5028371;28;20227;-72
2020/12/07 08:34:12;;;;;;;44.07;29.97;;;;;;;6.28;100.00;98941.59;5012857;28;20666;-71
2020/12/07 08:36:37;;;;;;;42.33;31.03;;;;;;;6.41;100.00;98927.44;5027981;28;20220;-71
2020/12/07 08:39:06;;;;;;;44.50;30.70;;;;;;;6.24;100.00;98935.16;4999842;28;20222;-71
2020/12/07 08:41:33;;;;;;;44.60;31.97;;;;;;;6.29;100.00;98932.44;5016095;28;20220;-71
2020/12/07 08:44:10;;;;;;;48.37;30.67;;;;;;;6.25;100.00;98942.19;5017076;28;20192;-71
2020/12/07 08:46:37;;;;;;;42.87;30.10;;;;;;;6.28;100.00;98947.81;5015796;28;20230;-71
2020/12/07 08:49:04;;;;;;;48.77;30.63;;;;;;;6.27;100.00;98950.78;5007009;28;20195;-71
2020/12/07 08:51:31;;;;;;;45.40;31.83;;;;;;;6.18;100.00;98953.28;5021277;28;20225;-71
2020/12/07 08:53:57;;;;;;;42.53;30.90;;;;;;;6.07;100.00;98961.78;4996735;28;20188;-71
2020/12/07 08:56:23;;;;;;;46.37;30.93;;;;;;;6.16;100.00;98970.84;4995260;28;20610;-73
2020/12/07 08:58:48;;;;;;;50.87;31.93;;;;;;;6.27;100.00;98977.75;4996991;28;20204;-72
2020/12/07 09:01:14;;;;;;;46.37;30.83;;;;;;;6.01;100.00;98987.16;4996244;28;20212;-72
2020/12/07 09:03:44;;;;;;;45.73;30.80;;;;;;;6.07;100.00;98983.31;5013016;28;20177;-72
2020/12/07 09:06:15;;;;;;;45.83;29.73;;;;;;;6.05;100.00;98979.31;5011791;28;20734;-72
2020/12/07 09:08:41;;;;;;;47.20;30.07;;;;;;;6.29;100.00;98997.91;4997232;28;20204;-71
2020/12/07 09:11:16;;;;;;;45.10;30.67;;;;;;;6.02;100.00;99012.19;5012371;28;20259;-71
2020/12/07 09:13:42;;;;;;;47.33;30.50;;;;;;;5.93;100.00;99017.38;4996485;28;20184;-72
2020/12/07 09:16:07;;;;;;;47.13;29.33;;;;;;;6.04;100.00;99020.81;4995443;28;20221;-71
2020/12/07 09:18:34;;;;;;;48.90;30.37;;;;;;;6.05;100.00;99022.44;5000645;28;20253;-71
2020/12/07 09:21:02;;;;;;;50.40;31.17;;;;;;;5.96;100.00;99024.91;5028539;28;20267;-71
2020/12/07 09:23:27;;;;;;;49.40;30.30;;;;;;;5.78;100.00;99017.50;4996857;28;20213;-71
2020/12/07 09:25:53;;;;;;;48.00;29.90;;;;;;;5.80;100.00;99023.41;5013184;28;20942;-71
2020/12/07 09:28:21;;;;;;;48.73;30.00;;;;;;;5.73;100.00;99034.81;5012671;28;20594;-71
2020/12/07 09:30:47;;;;;;;51.37;29.87;;;;;;;5.98;100.00;99027.31;5012060;28;20229;-71
2020/12/07 09:33:12;;;;;;;46.07;28.23;;;;;;;5.90;100.00;99034.13;4996400;28;20564;-71
2020/12/07 09:35:42;;;;;;;50.47;28.80;;;;;;;6.01;100.00;99034.84;4995011;28;20598;-71
2020/12/07 09:38:07;;;;;;;44.07;28.00;;;;;;;6.01;100.00;99030.28;5012318;28;20283;-72
2020/12/07 09:40:33;;;;;;;49.80;29.97;;;;;;;6.10;100.00;99036.66;5011884;28;20359;-71
2020/12/07 09:43:01;;;;;;;48.40;28.83;;;;;;;6.06;100.00;99040.97;5012481;28;20185;-70
2020/12/07 09:45:29;;;;;;;50.77;29.20;;;;;;;6.07;100.00;99037.22;5027784;28;20406;-71
2020/12/07 09:47:57;;;;;;;50.60;29.60;;;;;;;6.01;100.00;99042.94;5013009;28;20196;-71
2020/12/07 09:50:23;;;;;;;46.43;28.87;;;;;;;6.03;100.00;99043.47;5029299;28;20687;-71
2020/12/07 09:52:48;;;;;;;51.83;30.47;;;;;;;5.82;100.00;99052.78;5015039;28;20187;-71
2020/12/07 09:55:14;;;;;;;52.03;29.27;;;;;;;5.75;100.00;99055.78;4999545;28;20196;-71
2020/12/07 09:57:40;;;;;;;53.47;29.93;;;;;;;5.86;100.00;99056.50;5034843;28;20193;-74
2020/12/07 10:00:05;;;;;;;57.17;31.23;;;;;;;5.87;100.00;99040.06;5002327;28;20188;-72
2020/12/07 10:02:31;;;;;;;51.40;28.73;;;;;;;5.92;100.00;99040.03;5034468;28;20224;-72
2020/12/07 10:04:57;;;;;;;52.00;30.10;;;;;;;5.74;100.00;99042.59;5017257;28;20303;-72
2020/12/07 10:07:22;;;;;;;52.20;29.60;;;;;;;5.87;100.00;99050.03;5010092;28;20221;-72
2020/12/07 10:09:48;;;;;;;44.67;26.70;;;;;;;6.03;100.00;99046.94;4981125;28;20184;-71
2020/12/07 10:12:16;;;;;;;41.17;26.03;;;;;;;5.89;100.00;99045.97;5012095;28;20227;-72
2020/12/07 10:14:41;;;;;;;35.43;23.07;;;;;;;5.88;100.00;99047.06;5012885;28;20625;-71
2020/12/07 10:17:07;;;;;;;33.40;22.20;;;;;;;5.78;100.00;99055.22;5013964;28;20212;-72
2020/12/07 10:19:33;;;;;;;34.17;22.80;;;;;;;5.83;100.00;99055.19;5003691;28;20747;-72
2020/12/07 10:21:58;;;;;;;35.50;24.97;;;;;;;5.91;100.00;99054.56;4994241;28;20244;-72
2020/12/07 10:24:24;;;;;;;35.73;23.33;;;;;;;5.96;100.00;99059.94;5011343;28;20216;-72
2020/12/07 10:26:49;;;;;;;31.77;21.67;;;;;;;5.86;100.00;99062.72;4994116;28;20229;-71
2020/12/07 10:29:15;;;;;;;30.67;21.20;;;;;;;5.71;100.00;99072.75;4962631;28;20200;-72
2020/12/07 10:31:43;;;;;;;31.67;21.90;;;;;;;5.82;100.00;99088.63;4994591;28;20216;-71
2020/12/07 10:34:11;;;;;;;28.50;21.43;;;;;;;5.79;100.00;99078.38;4994994;28;20271;-71
2020/12/07 10:36:39;;;;;;;28.07;20.30;;;;;;;5.87;100.00;99069.69;5010260;28;20236;-72
2020/12/07 10:39:07;;;;;;;25.27;17.77;;;;;;;5.96;100.00;99043.78;5011657;28;20189;-71
2020/12/07 10:41:32;;;;;;;22.17;17.20;;;;;;;5.87;100.00;99055.44;5010456;28;20225;-71
2020/12/07 10:43:58;;;;;;;20.40;16.33;;;;;;;5.93;100.00;99057.78;4994878;28;20201;-72
2020/12/07 10:46:23;;;;;;;19.63;15.37;;;;;;;5.97;100.00;99066.94;4993844;28;20275;-71
2020/12/07 10:48:49;;;;;;;20.23;14.67;;;;;;;6.10;100.00;99063.59;4997013;28;20177;-72
2020/12/07 10:51:16;;;;;;;19.73;15.47;;;;;;;6.15;100.00;99053.59;5010196;28;20680;-72
2020/12/07 10:53:41;;;;;;;18.10;14.20;;;;;;;6.37;100.00;99047.72;4995010;28;20185;-72
2020/12/07 10:56:07;;;;;;;15.87;13.10;;;;;;;6.63;100.00;99061.47;4993758;28;20220;-72
2020/12/07 10:58:34;;;;;;;14.80;11.93;;;;;;;6.57;100.00;99054.53;4994478;28;20851;-71
2020/12/07 11:01:02;;;;;;;16.37;11.63;;;;;;;6.61;100.00;99066.34;5010307;28;20221;-72
2020/12/07 11:03:28;;;;;;;12.43;11.00;;;;;;;6.57;100.00;99080.66;4994450;28;20682;-72
2020/12/07 11:05:53;;;;;;;13.37;11.13;;;;;;;6.59;99.83;99084.72;4993352;28;20246;-72
2020/12/07 11:08:26;;;;;;;11.83;10.57;;;;;;;6.69;99.75;99090.00;5010809;28;20650;-72
2020/12/07 11:10:55;;;;;;;13.70;10.60;;;;;;;6.63;98.15;99085.75;4994958;28;20717;-72
2020/12/07 11:13:32;;;;;;;12.07;10.00;;;;;;;6.44;99.33;99088.63;5011614;28;20181;-71
2020/12/07 11:16:02;;;;;;;12.43;10.50;;;;;;;6.31;99.74;99091.97;5010228;28;20224;-71
2020/12/07 11:18:35;;;;;;;11.70;9.77;;;;;;;6.29;100.00;99094.16;4997988;28;20269;-71
2020/12/07 11:21:01;;;;;;;9.37;8.00;;;;;;;6.23;99.21;99101.47;5029516;28;20312;-72
2020/12/07 11:23:26;;;;;;;9.17;8.03;;;;;;;6.06;100.00;99111.03;5013928;28;20176;-72
2020/12/07 11:25:52;;;;;;;9.20;7.90;;;;;;;6.01;100.00;99113.00;5012484;28;20234;-72
2020/12/07 11:28:17;;;;;;;13.57;9.17;;;;;;;6.06;100.00;99111.03;5013676;28;20181;-72
2020/12/07 11:30:43;;;;;;;10.17;8.80;;;;;;;6.08;100.00;99103.50;5012985;28;20227;-72
2020/12/07 11:33:11;;;;;;;8.67;7.80;;;;;;;6.11;100.00;99085.97;5013563;28;20176;-71
2020/12/07 11:35:39;;;;;;;7.63;6.83;;;;;;;6.05;100.00;99095.97;5012242;28;20216;-71
2020/12/07 11:38:15;;;;;;;6.70;5.77;;;;;;;6.00;99.25;99090.59;5013741;28;20335;-71
2020/12/07 11:44:06;;;;;;;6.67;5.97;;;;;;;5.94;100.00;99107.91;5021129;28;20279;-73
2020/12/07 11:47:18;;;;;;;6.27;5.67;;;;;;;5.96;100.00;99111.13;5025825;28;20319;-72